Time;durP1;ratioP1;P1;durP2;ratioP2;P2;SDS_P1;SDS_P2;PMS_P1;PMS_P2;Temp;Humidity;BMP_temperature;BMP_pressure;BME280_temperature;BME280_humidity;BME280_pressure;Samples;Min_cycle;Max_cycle;Signal;HPM_P1;HPM_P2
2023/10/16 00:05:08;;;;;;;4.03;1.13;;;;;;;;;;4999138;28;20040;-71
2023/10/16 00:07:34;;;;;;;4.90;1.30;;;;;;;;;;4977704;28;20050;-71
2023/10/16 00:10:11;;;;;;;4.35;1.70;;;;;;;;;;4981432;28;20092;-71
2023/10/16 00:12:37;;;;;;;7.07;1.50;;;;;;;;;;5001199;28;20049;-71
2023/10/16 00:15:03;;;;;;;3.28;1.50;;;;;;;;;;5000672;28;20053;-72
2023/10/16 00:17:31;;;;;;;5.38;1.27;;;;;;;;;;4986253;28;20524;-71
2023/10/16 00:19:56;;;;;;;3.30;1.17;;;7.80;99.90;;;;;;4986166;28;20080;-71
2023/10/16 00:22:22;;;;;;;7.75;1.80;;;;;;;;;;4986684;28;20159;-71
2023/10/16 00:24:48;;;;;;;6.28;1.30;;;;;;;;;;4986217;28;20065;-71
2023/10/16 00:27:14;;;;;;;4.05;1.15;;;7.70;99.90;;;;;;4987548;28;20050;-71
2023/10/16 00:29:44;;;;;;;3.90;0.98;;;;;;;;;;4979858;28;20056;-71
2023/10/16 00:32:11;;;;;;;4.55;1.10;;;7.90;99.90;;;;;;4988050;28;20483;-71
2023/10/16 00:34:38;;;;;;;8.38;1.58;;;;;;;;;;4986795;28;20497;-71
2023/10/16 00:37:07;;;;;;;2.78;1.40;;;;;;;;;;4988185;28;20053;-71
2023/10/16 00:39:35;;;;;;;3.40;1.08;;;;;;;;;;4987509;28;20161;-71
2023/10/16 00:42:02;;;;;;;2.90;1.00;;;;;;;;;;5003558;28;20054;-71
2023/10/16 00:44:34;;;;;;;4.20;1.25;;;;;;;;;;5002069;28;20049;-71
2023/10/16 00:47:04;;;;;;;1.60;0.90;;;;;;;;;;5004784;28;20041;-71
2023/10/16 00:49:31;;;;;;;3.55;1.10;;;;;;;;;;5002691;28;20057;-71
2023/10/16 00:51:58;;;;;;;1.85;1.02;;;;;;;;;;4961380;28;20085;-71
2023/10/16 00:54:28;;;;;;;3.08;0.88;;;;;;;;;;4982249;28;20053;-71
2023/10/16 00:57:07;;;;;;;3.47;1.00;;;;;;;;;;4988925;28;20223;-71
2023/10/16 00:59:35;;;;;;;3.03;1.25;;;;;;;;;;4996938;28;20046;-71
2023/10/16 01:02:17;;;;;;;5.80;1.05;;;;;;;;;;4995532;28;20675;-71
2023/10/16 01:04:46;;;;;;;4.55;1.35;;;;;;;;;;4986244;28;20137;-72
2023/10/16 01:07:15;;;;;;;5.32;1.13;;;;;;;;;;4984414;28;20145;-71
2023/10/16 01:09:41;;;;;;;3.88;1.45;;;;;;;;;;5004291;28;20065;-71
2023/10/16 01:12:07;;;;;;;2.55;0.98;;;;;;;;;;4986275;28;20073;-71
2023/10/16 01:14:37;;;;;;;3.40;0.90;;;;;;;;;;4983655;28;20568;-71
2023/10/16 01:17:32;;;;;;;6.03;1.33;;;;;;;;;;5002671;28;20559;-71
2023/10/16 01:19:59;;;;;;;3.17;1.25;;;;;;;;;;4994076;28;20504;-71
2023/10/16 01:22:29;;;;;;;2.35;1.02;;;;;;;;;;4984016;28;20054;-71
2023/10/16 01:24:55;;;;;;;6.00;1.08;;;;;;;;;;5003513;28;20511;-71
2023/10/16 01:27:29;;;;;;;2.53;0.70;;;;;;;;;;4989111;28;20718;-71
2023/10/16 01:30:02;;;;;;;4.43;0.75;;;;;;;;;;4982618;28;20050;-72
2023/10/16 01:32:28;;;;;;;4.35;1.10;;;8.20;99.90;;;;;;5002504;28;20034;-71
2023/10/16 01:34:55;;;;;;;3.15;1.08;;;;;;;;;;4983915;28;20042;-71
2023/10/16 01:37:21;;;;;;;6.13;1.55;;;;;;;;;;5001021;28;20053;-71
2023/10/16 01:39:53;;;;;;;3.17;0.80;;;;;;;;;;4987855;28;20042;-71
2023/10/16 01:42:19;;;;;;;4.32;0.75;;;;;;;;;;4983726;28;20052;-71
2023/10/16 01:44:45;;;;;;;3.65;0.93;;;;;;;;;;5002687;28;20132;-71
2023/10/16 01:47:15;;;;;;;4.00;1.35;;;;;;;;;;4998480;28;20566;-71
2023/10/16 01:49:42;;;;;;;2.53;1.00;;;;;;;;;;4988370;28;20137;-71
2023/10/16 01:52:11;;;;;;;3.25;1.10;;;;;;;;;;4985794;28;20388;-71
2023/10/16 01:54:38;;;;;;;3.17;1.10;;;;;;;;;;4983703;28;20050;-71
2023/10/16 01:57:10;;;;;;;1.45;1.00;;;;;;;;;;4982052;28;20064;-71
2023/10/16 01:59:49;;;;;;;3.00;0.90;;;;;;;;;;4963173;28;20138;-71
2023/10/16 02:02:17;;;;;;;3.75;0.90;;;8.10;99.90;;;;;;4982314;28;20077;-71
2023/10/16 02:04:43;;;;;;;3.80;1.10;;;;;;;;;;4980263;28;20062;-71
2023/10/16 02:07:09;;;;;;;4.35;1.00;;;;;;;;;;4964006;28;20050;-71
2023/10/16 02:09:39;;;;;;;1.73;1.10;;;;;;;;;;4980908;28;20042;-72
2023/10/16 02:12:10;;;;;;;1.90;1.10;;;;;;;;;;4977707;28;20046;-71
2023/10/16 02:14:39;;;;;;;3.25;0.90;;;;;;;;;;4977771;28;20052;-71
2023/10/16 02:17:10;;;;;;;3.00;0.93;;;;;;;;;;4973203;28;20050;-72
2023/10/16 02:19:36;;;;;;;2.25;1.00;;;;;;;;;;4983064;28;20062;-71
2023/10/16 02:22:03;;;;;;;4.32;0.88;;;;;;;;;;4979407;28;20093;-71
2023/10/16 02:24:28;;;;;;;1.88;0.88;;;7.90;99.90;;;;;;4982917;28;20054;-71
2023/10/16 02:26:57;;;;;;;3.08;0.98;;;7.90;99.90;;;;;;4978042;28;20041;-71
2023/10/16 02:29:31;;;;;;;2.67;0.93;;;;;;;;;;4977167;28;20761;-71
2023/10/16 02:31:58;;;;;;;4.27;0.83;;;;;;;;;;4975759;28;20046;-71
2023/10/16 02:34:24;;;;;;;2.45;0.90;;;;;;;;;;4981088;28;20085;-71
2023/10/16 02:36:56;;;;;;;4.60;1.13;;;;;;;;;;4980990;28;20050;-70
2023/10/16 02:39:35;;;;;;;2.15;0.95;;;;;;;;;;5084703;22;20045;-71
2023/10/16 02:42:01;;;;;;;1.48;1.00;;;;;;;;;;5007078;28;20060;-72
2023/10/16 02:44:27;;;;;;;3.60;0.77;;;;;;;;;;5007956;28;20136;-71
2023/10/16 02:55:43;;;;;;;1.50;0.88;;;;;;;;;;5767027;22;20058;-71
2023/10/16 02:58:11;;;;;;;2.33;0.77;;;;;;;;;;4983105;28;20443;-71
2023/10/16 03:00:43;;;;;;;2.75;0.88;;;;;;;;;;4963233;28;20045;-71
2023/10/16 03:03:09;;;;;;;3.80;0.95;;;;;;;;;;4964976;28;20129;-71
2023/10/16 03:05:35;;;;;;;3.67;1.55;;;;;;;;;;4962136;28;20050;-71
2023/10/16 03:08:02;;;;;;;5.53;1.00;;;;;;;;;;4964524;28;20129;-71
2023/10/16 03:10:28;;;;;;;1.05;0.90;;;;;;;;;;4974117;28;20047;-71
2023/10/16 03:12:56;;;;;;;3.20;1.00;;;;;;;;;;4960217;28;20532;-72
2023/10/16 03:15:31;;;;;;;3.70;1.33;;;;;;;;;;4963357;28;20058;-71
2023/10/16 03:17:57;;;;;;;2.00;1.20;;;;;;;;;;4983828;28;20050;-71
2023/10/16 03:20:28;;;;;;;3.83;1.02;;;;;;;;;;4951117;28;20127;-71
2023/10/16 03:22:54;;;;;;;1.63;1.00;;;;;;;;;;4979531;28;20082;-71
2023/10/16 03:27:55;;;;;;;2.78;1.10;;;;;;;;;;4962301;28;20535;-71
2023/10/16 03:30:21;;;;;;;2.22;1.45;;;;;;;;;;4963000;28;20050;-71
2023/10/16 03:32:47;;;;;;;5.00;1.25;;;;;;;;;;4958162;28;20150;-71
2023/10/16 03:35:20;;;;;;;2.00;1.20;;;8.00;99.90;;;;;;4960006;28;20059;-71
2023/10/16 03:37:49;;;;;;;2.13;1.00;;;;;;;;;;4979568;28;20053;-71
2023/10/16 03:40:19;;;;;;;4.13;1.67;;;;;;;;;;4962235;28;20056;-71
2023/10/16 03:42:45;;;;;;;4.43;1.15;;;;;;;;;;4964460;28;20061;-71
2023/10/16 03:45:13;;;;;;;2.38;1.20;;;;;;;;;;4980640;28;20483;-71
2023/10/16 03:47:39;;;;;;;4.60;1.23;;;;;;;;;;4979590;28;20113;-71
2023/10/16 03:50:06;;;;;;;1.42;1.15;;;;;;;;;;4964366;28;20077;-71
2023/10/16 03:52:33;;;;;;;7.32;1.38;;;;;;;;;;4966523;28;20053;-72
2023/10/16 03:57:46;;;;;;;6.80;1.50;;;;;;;;;;4955781;28;20176;-71
2023/10/16 04:03:47;;;;;;;1.95;1.17;;;;;;;;;;4980776;28;20514;-71
2023/10/16 04:06:20;;;;;;;3.42;0.90;;;;;;;;;;4960657;28;20046;-71
2023/10/16 04:08:49;;;;;;;3.92;1.13;;;;;;;;;;4966017;28;20496;-71
2023/10/16 04:14:55;;;;;;;2.50;1.30;;;;;;;;;;4983262;28;20040;-71
2023/10/16 04:17:24;;;;;;;4.20;1.40;;;;;;;;;;4983662;28;20046;-71
2023/10/16 04:19:53;;;;;;;3.58;1.10;;;;;;;;;;4985428;28;20042;-71
2023/10/16 04:22:23;;;;;;;2.08;1.23;;;;;;;;;;4983753;28;20420;-71
2023/10/16 04:24:54;;;;;;;2.88;1.50;;;;;;;;;;4964219;28;20050;-71
2023/10/16 04:29:46;;;;;;;2.65;1.08;;;;;;;;;;4963979;28;20054;-71
2023/10/16 04:35:03;;;;;;;3.42;1.13;;;;;;;;;;4966306;28;20723;-71
2023/10/16 04:37:29;;;;;;;2.80;1.10;;;;;;;;;;4967589;28;20057;-71
2023/10/16 05:13:17;;;;;;;4.03;1.05;;;;;;;;;;4963497;28;20042;-71
2023/10/16 06:15:37;;;;;;;5.53;1.88;;;;;;;;;;4940918;28;20575;-71
2023/10/16 06:18:06;;;;;;;2.22;1.55;;;;;;;;;;4941313;28;20102;-71
2023/10/16 06:20:32;;;;;;;3.17;1.52;;;;;;;;;;4927608;28;20050;-71
2023/10/16 06:22:58;;;;;;;2.90;1.85;;;;;;;;;;4926462;28;20061;-71
2023/10/16 06:25:28;;;;;;;8.05;1.90;;;;;;;;;;4940757;28;20465;-70
2023/10/16 06:27:55;;;;;;;3.50;1.65;;;;;;;;;;4943300;28;20050;-71
2023/10/16 06:30:22;;;;;;;5.70;1.40;;;8.50;99.90;;;;;;4962089;28;20097;-71
2023/10/16 06:32:49;;;;;;;1.92;1.60;;;;;;;;;;4937146;28;20502;-71
2023/10/16 06:35:16;;;;;;;3.03;1.50;;;;;;;;;;4949105;28;20061;-71
2023/10/16 06:37:51;;;;;;;5.50;1.90;;;;;;;;;;4942201;28;20135;-71
2023/10/16 06:40:19;;;;;;;5.05;1.90;;;;;;;;;;4939447;28;20130;-71
2023/10/16 06:42:49;;;;;;;3.92;1.58;;;;;;;;;;4955571;28;20061;-72
2023/10/16 06:45:22;;;;;;;3.08;1.50;;;8.60;99.90;;;;;;4941168;28;20050;-71
2023/10/16 06:47:48;;;;;;;3.55;1.50;;;;;;;;;;4961330;28;20042;-72
2023/10/16 06:53:00;;;;;;;4.28;1.50;;;;;;;;;;4945880;28;20059;-71
2023/10/16 06:55:26;;;;;;;4.43;1.48;;;;;;;;;;4949169;28;20065;-72
2023/10/16 06:57:52;;;;;;;4.75;1.73;;;;;;;;;;4944011;28;20673;-72
2023/10/16 07:00:26;;;;;;;5.95;2.03;;;;;;;;;;4958427;28;20061;-72
2023/10/16 07:02:56;;;;;;;4.80;1.73;;;;;;;;;;4942795;28;20051;-72
2023/10/16 07:05:22;;;;;;;5.72;1.88;;;;;;;;;;4943117;28;20043;-71
2023/10/16 07:07:56;;;;;;;5.32;1.83;;;;;;;;;;4948458;28;20078;-72
2023/10/16 07:10:22;;;;;;;3.65;1.95;;;;;;;;;;4924735;28;20082;-71
2023/10/16 07:13:02;;;;;;;4.13;1.92;;;;;;;;;;4946855;28;20654;-71
2023/10/16 07:15:32;;;;;;;5.97;2.42;;;;;;;;;;4938275;28;20051;-71
2023/10/16 07:18:13;;;;;;;3.95;2.28;;;;;;;;;;4943407;28;20588;-70
2023/10/16 07:23:24;;;;;;;4.10;1.75;;;;;;;;;;4946071;28;20054;-71
2023/10/16 07:25:54;;;;;;;5.22;1.98;;;;;;;;;;4962675;28;20134;-71
2023/10/16 07:28:21;;;;;;;3.45;2.25;;;;;;;;;;4950038;28;20153;-71
2023/10/16 07:30:47;;;;;;;4.45;1.95;;;;;;;;;;4932566;28;20058;-72
2023/10/16 07:33:16;;;;;;;5.82;1.67;;;;;;;;;;4961404;28;20060;-72
2023/10/16 07:35:50;;;;;;;6.13;2.15;;;9.30;99.90;;;;;;4946400;28;20047;-71
2023/10/16 07:38:19;;;;;;;6.68;2.10;;;;;;;;;;4943268;28;20541;-72
2023/10/16 07:40:46;;;;;;;2.85;1.63;;;;;;;;;;4941167;28;20477;-73
2023/10/16 07:43:12;;;;;;;3.58;2.03;;;;;;;;;;4942979;28;20106;-72
2023/10/16 07:45:38;;;;;;;7.05;1.90;;;;;;;;;;4938149;29;20126;-72
2023/10/16 07:48:20;;;;;;;4.32;1.65;;;;;;;;;;4946480;28;20055;-70
2023/10/16 07:50:47;;;;;;;3.78;1.80;;;;;;;;;;4946299;28;20043;-71
2023/10/16 07:53:17;;;;;;;5.10;1.98;;;;;;;;;;4947055;29;20689;-72
2023/10/16 07:55:50;;;;;;;5.57;2.00;;;;;;;;;;4943757;28;20059;-72
2023/10/16 07:58:17;;;;;;;4.50;1.55;;;;;;;;;;4939980;29;20043;-71
2023/10/16 08:00:59;;;;;;;5.15;1.70;;;;;;;;;;4941356;28;20087;-70
2023/10/16 08:03:26;;;;;;;7.00;2.08;;;;;;;;;;4945754;28;20051;-70
2023/10/16 08:05:52;;;;;;;3.67;1.77;;;;;;;;;;4943893;28;20055;-70
2023/10/16 08:08:25;;;;;;;4.03;1.75;;;;;;;;;;4938829;29;20058;-72
2023/10/16 08:10:52;;;;;;;6.65;1.83;;;;;;;;;;4928653;29;20042;-71
2023/10/16 08:13:23;;;;;;;4.53;1.80;;;;;;;;;;4945721;28;20116;-70
2023/10/16 08:15:49;;;;;;;6.53;2.10;;;;;;;;;;4940839;28;20062;-71
2023/10/16 08:18:18;;;;;;;3.90;1.77;;;;;;;;;;4923312;29;20458;-70
2023/10/16 08:21:00;;;;;;;4.10;1.75;;;;;;;;;;4940989;29;20055;-72
2023/10/16 08:23:33;;;;;;;10.57;1.70;;;;;;;;;;4941708;28;20387;-71
2023/10/16 08:26:00;;;;;;;3.00;1.42;;;;;;;;;;4937554;28;20059;-70
2023/10/16 08:28:35;;;;;;;3.03;1.55;;;;;;;;;;4944475;28;20055;-70
2023/10/16 08:33:46;;;;;;;4.18;1.50;;;;;;;;;;4948294;28;20089;-71
2023/10/16 08:36:12;;;;;;;3.92;1.33;;;;;;;;;;4947304;28;20042;-70
2023/10/16 08:38:40;;;;;;;5.75;1.48;;;;;;;;;;4933987;28;20053;-70
2023/10/16 08:41:14;;;;;;;6.03;1.70;;;11.20;99.90;;;;;;4948253;28;20076;-69
2023/10/16 08:43:52;;;;;;;6.53;1.53;;;;;;;;;;4944425;28;20102;-70
2023/10/16 08:46:19;;;;;;;3.30;1.63;;;;;;;;;;4947137;28;20039;-71
2023/10/16 08:48:46;;;;;;;3.72;1.38;;;11.50;99.90;;;;;;4945037;28;20057;-70
2023/10/16 08:51:12;;;;;;;6.22;1.55;;;;;;;;;;4946932;28;20070;-70
2023/10/16 08:53:42;;;;;;;9.07;1.35;;;;;;;;;;4942972;28;20039;-71
2023/10/16 08:56:08;;;;;;;5.57;1.40;;;;;;;;;;4933731;28;20726;-70
2023/10/16 08:58:40;;;;;;;4.68;1.60;;;11.50;99.90;;;;;;4950153;28;20501;-70
2023/10/16 09:01:11;;;;;;;2.83;1.30;;;11.30;99.90;;;;;;4933236;28;20043;-70
2023/10/16 09:03:38;;;;;;;4.85;1.70;;;;;;;;;;4962273;28;20450;-71
2023/10/16 09:06:04;;;;;;;5.43;1.45;;;;;;;;;;4932282;28;20106;-71
2023/10/16 09:08:33;;;;;;;5.85;1.42;;;11.20;99.90;;;;;;4945144;28;20535;-71
2023/10/16 09:11:05;;;;;;;3.33;1.13;;;11.30;99.90;;;;;;4925567;28;20795;-71
2023/10/16 09:13:35;;;;;;;8.52;1.45;;;;;;;;;;4942314;28;20042;-71
2023/10/16 09:16:02;;;;;;;6.45;1.45;;;;;;;;;;4932942;28;20042;-71
2023/10/16 09:18:27;;;;;;;3.67;1.13;;;;;;;;;;4926976;29;20043;-70
2023/10/16 09:21:00;;;;;;;5.63;1.30;;;11.30;99.90;;;;;;4957468;28;20055;-71
2023/10/16 09:23:36;;;;;;;2.33;1.23;;;;;;;;;;4943978;28;20060;-71
2023/10/16 09:26:02;;;;;;;4.55;1.30;;;;;;;;;;4948034;28;20535;-70
2023/10/16 09:28:32;;;;;;;4.05;1.50;;;;;;;;;;4948236;28;20054;-70
2023/10/16 09:31:01;;;;;;;5.75;1.30;;;;;;;;;;4940771;28;20085;-71
2023/10/16 09:33:28;;;;;;;5.60;1.63;;;;;;;;;;4935566;28;20063;-70
2023/10/16 09:36:00;;;;;;;5.70;1.50;;;;;;;;;;4949725;28;20101;-67
2023/10/16 09:38:32;;;;;;;5.18;1.70;;;;;;;;;;4948075;28;20445;-67
2023/10/16 09:44:07;;;;;;;6.30;1.27;;;12.40;99.90;;;;;;4949300;28;20169;-68
2023/10/16 09:49:21;;;;;;;9.48;1.60;;;13.70;99.90;;;;;;4954224;28;20492;-68
2023/10/16 09:51:47;;;;;;;7.07;1.70;;;;;;;;;;4958246;28;20054;-67
2023/10/16 09:54:14;;;;;;;5.47;1.52;;;;;;;;;;4966523;28;20039;-68
2023/10/16 09:56:48;;;;;;;3.22;1.27;;;14.40;99.90;;;;;;4928969;28;20401;-70
2023/10/16 09:59:22;;;;;;;9.02;1.60;;;14.90;99.90;;;;;;4943544;28;20130;-69
2023/10/16 10:01:51;;;;;;;8.40;1.55;;;14.90;99.90;;;;;;4941767;28;20138;-70
2023/10/16 10:04:24;;;;;;;4.00;1.52;;;14.80;99.90;;;;;;4946276;28;20057;-70
2023/10/16 10:06:54;;;;;;;7.07;1.73;;;14.50;99.90;;;;;;4943783;28;20066;-71
2023/10/16 10:09:22;;;;;;;4.50;1.48;;;13.90;99.90;;;;;;4942039;28;20146;-70
2023/10/16 10:12:37;;;;;;;6.30;1.38;;;13.70;99.90;;;;;;4960945;28;20151;-70
2023/10/16 10:15:28;;;;;;;3.15;1.52;;;13.40;99.90;;;;;;4934805;28;20046;-70
2023/10/16 10:17:56;;;;;;;5.50;1.58;;;13.30;99.90;;;;;;4955694;28;20089;-70
2023/10/16 10:20:39;;;;;;;8.55;2.17;;;13.20;99.90;;;;;;4934335;28;20031;-70
2023/10/16 10:23:08;;;;;;;4.57;1.42;;;13.30;99.90;;;;;;4941913;28;20104;-69
2023/10/16 10:25:35;;;;;;;5.18;1.60;;;13.20;99.90;;;;;;4945178;28;20062;-69
2023/10/16 10:28:09;;;;;;;4.57;1.17;;;13.20;99.90;;;;;;4945951;28;20062;-70
2023/10/16 10:30:39;;;;;;;7.50;1.60;;;11.60;99.90;;;;;;4940640;28;20047;-70
2023/10/16 10:33:06;;;;;;;8.43;1.67;;;;;;;;;;4959318;28;20055;-70
2023/10/16 10:35:43;;;;;;;3.55;1.20;;;;;;;;;;4944191;28;20122;-70
2023/10/16 10:38:18;;;;;;;5.68;1.42;;;;;;;;;;4958789;28;20054;-70
2023/10/16 10:41:12;;;;;;;11.07;1.63;;;13.00;99.90;;;;;;4941280;28;20055;-70
2023/10/16 10:43:49;;;;;;;4.68;1.13;;;12.80;99.90;;;;;;4943121;28;20069;-72
2023/10/16 10:46:20;;;;;;;7.55;1.50;;;12.80;99.90;;;;;;4923935;28;20061;-71
2023/10/16 10:48:46;;;;;;;10.57;1.15;;;;;;;;;;4960004;28;20684;-69
2023/10/16 10:51:15;;;;;;;9.40;1.55;;;13.10;99.90;;;;;;4950205;28;20038;-72
2023/10/16 10:53:54;;;;;;;4.53;1.40;;;;;;;;;;4948785;28;20050;-69
2023/10/16 10:56:21;;;;;;;7.55;1.30;;;;;;;;;;4945232;28;20783;-70
2023/10/16 10:58:47;;;;;;;7.25;1.88;;;;;;;;;;4934557;28;20097;-69
2023/10/16 11:01:16;;;;;;;6.80;1.25;;;;;;;;;;4952512;28;20409;-70
2023/10/16 11:03:45;;;;;;;4.60;1.27;;;12.70;99.90;;;;;;4945292;28;20440;-74
2023/10/16 11:06:41;;;;;;;4.45;1.23;;;;;;;;;;4926120;28;20038;-68
2023/10/16 11:09:18;;;;;;;6.15;1.50;;;;;;;;;;4958450;28;20086;-68
2023/10/16 11:11:45;;;;;;;5.63;1.27;;;;;;;;;;4958104;28;20748;-68
2023/10/16 11:14:12;;;;;;;7.40;1.35;;;12.30;99.90;;;;;;4961606;28;20062;-69
2023/10/16 11:16:42;;;;;;;6.32;1.38;;;;;;;;;;4962035;28;20035;-68
2023/10/16 11:19:09;;;;;;;2.92;1.30;;;;;;;;;;4943382;28;20050;-67
2023/10/16 11:21:39;;;;;;;5.80;1.30;;;12.70;99.90;;;;;;4957153;28;20053;-69
2023/10/16 11:24:06;;;;;;;5.78;1.25;;;;;;;;;;4928199;28;20055;-69
2023/10/16 11:26:32;;;;;;;3.58;1.02;;;12.60;99.90;;;;;;4946032;28;20082;-68
2023/10/16 11:29:04;;;;;;;7.95;1.70;;;;;;;;;;4952284;28;20179;-68
2023/10/16 11:31:31;;;;;;;5.47;1.15;;;;;;;;;;4944823;28;20573;-68
2023/10/16 11:34:00;;;;;;;8.23;1.65;;;12.60;99.90;;;;;;4963405;28;20249;-67
2023/10/16 11:36:27;;;;;;;3.53;1.08;;;;;;;;;;4937222;28;20058;-71
2023/10/16 11:38:58;;;;;;;6.57;1.98;;;12.60;99.90;;;;;;4945793;28;20066;-69
2023/10/16 11:41:24;;;;;;;9.80;1.98;;;12.80;99.90;;;;;;4944072;28;20109;-69
2023/10/16 11:43:51;;;;;;;5.55;1.55;;;;;;;;;;4963402;28;20138;-69
2023/10/16 11:46:44;;;;;;;2.90;0.90;;;;;;;;;;4928551;28;20053;-69
2023/10/16 11:49:22;;;;;;;4.05;1.05;;;12.80;99.90;;;;;;4944499;28;20055;-68
2023/10/16 11:51:53;;;;;;;5.28;1.35;;;12.80;99.90;;;;;;4943502;28;20118;-68
2023/10/16 11:54:21;;;;;;;7.07;1.38;;;12.70;99.90;;;;;;4943191;28;20039;-68
2023/10/16 11:56:55;;;;;;;8.77;1.30;;;12.70;99.90;;;;;;4946695;28;20057;-67
2023/10/16 11:59:21;;;;;;;6.60;1.70;;;13.00;99.90;;;;;;4960677;28;20043;-67
2023/10/16 12:01:51;;;;;;;7.75;1.42;;;;;;;;;;4944765;28;20061;-68
2023/10/16 12:04:17;;;;;;;5.82;1.60;;;;;;;;;;4945573;28;20061;-67
2023/10/16 12:06:44;;;;;;;4.22;1.23;;;12.80;99.90;;;;;;4962800;28;20051;-66
2023/10/16 12:09:13;;;;;;;8.55;1.63;;;;;;;;;;4962623;28;20268;-68
2023/10/16 12:11:42;;;;;;;4.47;1.00;;;12.90;99.90;;;;;;4945401;28;20053;-70
2023/10/16 12:14:09;;;;;;;6.32;1.48;;;;;;;;;;4944442;28;20147;-68
2023/10/16 12:16:35;;;;;;;5.18;1.58;;;;;;;;;;4964208;28;20071;-67
2023/10/16 12:19:01;;;;;;;4.63;1.10;;;;;;;;;;4954727;28;20076;-67
2023/10/16 12:21:28;;;;;;;7.32;1.63;;;12.90;99.90;;;;;;4944644;28;20042;-69
2023/10/16 12:23:54;;;;;;;5.03;2.08;;;;;;;;;;4960843;28;20047;-68
2023/10/16 12:26:20;;;;;;;6.55;1.15;;;;;;;;;;4965298;28;20042;-67
2023/10/16 12:28:46;;;;;;;5.10;1.40;;;;;;;;;;4968033;28;20053;-67
2023/10/16 12:31:12;;;;;;;4.05;1.02;;;;;;;;;;4963630;28;20100;-67
2023/10/16 12:33:38;;;;;;;3.95;1.45;;;13.00;99.90;;;;;;4961128;28;20622;-67
2023/10/16 12:36:07;;;;;;;4.70;1.35;;;12.90;99.90;;;;;;4947629;28;20046;-67
2023/10/16 12:38:33;;;;;;;3.58;1.00;;;13.00;99.90;;;;;;4947531;28;20122;-67
2023/10/16 12:41:04;;;;;;;4.07;1.02;;;13.10;99.90;;;;;;4940580;28;20164;-68
2023/10/16 12:43:30;;;;;;;5.70;1.10;;;;;;;;;;4932431;28;20034;-67
2023/10/16 12:45:57;;;;;;;2.92;0.77;;;;;;;;;;4937312;28;20580;-67
2023/10/16 12:48:29;;;;;;;5.40;1.50;;;13.00;99.90;;;;;;4966237;28;20043;-67
2023/10/16 12:50:59;;;;;;;4.78;1.00;;;12.90;99.90;;;;;;4946740;28;20078;-67
2023/10/16 12:53:26;;;;;;;4.25;1.00;;;;;;;;;;4945544;28;20043;-67
2023/10/16 12:55:55;;;;;;;8.85;1.00;;;;;;;;;;4964888;28;20049;-68
2023/10/16 12:58:22;;;;;;;2.80;1.08;;;;;;;;;;4965377;28;20050;-69
2023/10/16 13:00:50;;;;;;;5.28;1.15;;;;;;;;;;4951175;28;20062;-67
2023/10/16 13:03:19;;;;;;;3.25;0.70;;;12.80;99.90;;;;;;4944746;28;20055;-68
2023/10/16 13:05:45;;;;;;;6.45;1.10;;;;;;;;;;4965343;28;20449;-67
2023/10/16 13:08:11;;;;;;;5.97;0.88;;;;;;;;;;4946968;28;20078;-67
2023/10/16 13:10:38;;;;;;;7.78;1.38;;;;;;;;;;4959017;28;20125;-67
2023/10/16 13:13:04;;;;;;;5.10;1.00;;;;;;;;;;4963916;28;20039;-70
2023/10/16 13:15:31;;;;;;;6.45;1.42;;;13.00;99.90;;;;;;4947823;28;20053;-70
2023/10/16 13:17:59;;;;;;;6.05;1.20;;;13.00;99.90;;;;;;4954385;28;20104;-69
2023/10/16 13:20:27;;;;;;;4.38;1.10;;;13.00;99.90;;;;;;4928510;28;20054;-69
2023/10/16 13:22:53;;;;;;;1.80;0.70;;;;;;;;;;4925421;28;20468;-70
2023/10/16 13:25:22;;;;;;;6.15;1.15;;;12.90;99.90;;;;;;4966173;28;20507;-69
2023/10/16 13:27:48;;;;;;;4.65;1.15;;;;;;;;;;4942100;28;20051;-69
2023/10/16 13:30:16;;;;;;;2.25;1.02;;;13.10;99.90;;;;;;4943350;28;20122;-68
2023/10/16 13:32:46;;;;;;;5.15;1.48;;;12.90;99.90;;;;;;4958909;28;20991;-66
2023/10/16 13:35:12;;;;;;;4.50;0.95;;;;;;;;;;4945328;28;20042;-67
2023/10/16 13:37:45;;;;;;;4.85;1.20;;;12.70;99.90;;;;;;4947938;28;20039;-67
2023/10/16 13:40:21;;;;;;;5.78;1.20;;;13.00;99.90;;;;;;4945732;28;20126;-67
2023/10/16 13:42:55;;;;;;;6.35;1.20;;;12.90;99.90;;;;;;4951730;28;20058;-67
2023/10/16 13:45:22;;;;;;;5.25;0.95;;;13.00;99.90;;;;;;4943423;28;20094;-68
2023/10/16 13:47:49;;;;;;;4.18;1.10;;;;;;;;;;4945455;28;20101;-68
2023/10/16 13:50:27;;;;;;;7.85;1.77;;;12.90;99.90;;;;;;4946617;28;20127;-67
2023/10/16 13:52:54;;;;;;;13.35;1.38;;;13.00;99.90;;;;;;4938935;28;20039;-68
2023/10/16 13:55:23;;;;;;;4.95;0.77;;;12.90;99.90;;;;;;4953243;28;20047;-68
2023/10/16 13:57:50;;;;;;;4.03;0.80;;;12.70;99.90;;;;;;4956379;28;20035;-68
2023/10/16 14:00:29;;;;;;;4.78;1.50;;;;;;;;;;4950002;28;20102;-68
2023/10/16 14:05:47;;;;;;;6.55;1.10;;;12.90;99.90;;;;;;4964083;28;20047;-67
2023/10/16 14:08:17;;;;;;;3.53;0.82;;;12.90;99.90;;;;;;4947540;28;20045;-68
2023/10/16 14:10:57;;;;;;;4.75;1.20;;;12.80;99.90;;;;;;4931454;28;20083;-68
2023/10/16 14:13:26;;;;;;;1.80;0.70;;;;;;;;;;4943017;28;20121;-67
2023/10/16 14:15:57;;;;;;;2.60;0.80;;;;;;;;;;4961366;28;20054;-67
2023/10/16 14:18:29;;;;;;;3.00;0.90;;;;;;;;;;4944366;28;20054;-67
2023/10/16 14:20:56;;;;;;;8.00;1.23;;;12.60;99.90;;;;;;4938715;28;20054;-68
2023/10/16 14:23:28;;;;;;;6.68;1.60;;;12.80;99.90;;;;;;4943883;28;20054;-67
2023/10/16 14:25:57;;;;;;;4.30;0.82;;;;;;;;;;4948420;28;20082;-69
2023/10/16 14:28:40;;;;;;;4.28;0.90;;;;;;;;;;4944874;28;20054;-69
2023/10/16 14:31:11;;;;;;;1.50;0.90;;;12.80;99.90;;;;;;4948137;28;20539;-70
2023/10/16 14:33:37;;;;;;;8.25;1.00;;;12.60;99.90;;;;;;4942593;28;20079;-69
2023/10/16 14:36:09;;;;;;;4.63;0.85;;;12.70;99.90;;;;;;4947926;28;20039;-68
2023/10/16 14:38:37;;;;;;;1.65;1.10;;;12.70;99.90;;;;;;4944700;28;20556;-70
2023/10/16 14:41:04;;;;;;;4.15;1.08;;;;;;;;;;4942021;28;20509;-69
2023/10/16 14:43:33;;;;;;;10.48;1.13;;;12.60;99.90;;;;;;4958851;28;20061;-69
2023/10/16 14:46:00;;;;;;;6.05;0.95;;;;;;;;;;4958189;28;20047;-69
2023/10/16 14:48:26;;;;;;;4.45;1.33;;;12.80;99.90;;;;;;4941951;28;20043;-69
2023/10/16 14:50:52;;;;;;;3.03;1.10;;;;;;;;;;4946503;28;20039;-69
2023/10/16 14:53:19;;;;;;;6.90;0.90;;;;;;;;;;4944037;28;20654;-69
2023/10/16 14:55:49;;;;;;;6.57;1.40;;;12.70;99.90;;;;;;4948645;28;20046;-69
2023/10/16 14:58:15;;;;;;;5.68;1.17;;;;;;;;;;4949878;28;20448;-69
2023/10/16 15:00:50;;;;;;;3.65;1.20;;;;;;;;;;4945830;28;20043;-69
2023/10/16 15:03:20;;;;;;;7.53;2.95;;;12.60;99.90;;;;;;4944383;28;20046;-70
2023/10/16 15:05:46;;;;;;;4.75;1.23;;;;;;;;;;4961846;28;20125;-70
2023/10/16 15:08:13;;;;;;;8.82;1.52;;;;;;;;;;4945656;28;20113;-70
2023/10/16 15:10:43;;;;;;;9.90;1.35;;;12.50;99.90;;;;;;4945265;28;20078;-70
2023/10/16 15:13:16;;;;;;;4.90;1.10;;;12.40;99.90;;;;;;4943973;28;20053;-70
2023/10/16 15:15:42;;;;;;;8.40;1.20;;;12.40;99.90;;;;;;4945406;28;20416;-70
2023/10/16 15:18:11;;;;;;;2.35;1.00;;;12.20;99.90;;;;;;4956989;28;20043;-69
2023/10/16 15:20:39;;;;;;;6.68;1.50;;;12.30;99.90;;;;;;4939819;28;20245;-70
2023/10/16 15:23:06;;;;;;;3.85;1.10;;;;;;;;;;4943899;28;20133;-69
2023/10/16 15:25:32;;;;;;;7.85;1.35;;;;;;;;;;4961759;28;20051;-69
2023/10/16 15:27:58;;;;;;;5.28;1.38;;;12.30;99.90;;;;;;4948032;28;20553;-70
2023/10/16 15:30:26;;;;;;;4.07;1.15;;;;;;;;;;4947246;28;20065;-70
2023/10/16 15:32:52;;;;;;;3.13;1.10;;;12.30;99.90;;;;;;4938742;28;20063;-70
2023/10/16 15:35:18;;;;;;;5.07;1.25;;;12.30;99.90;;;;;;4944430;28;20103;-69
2023/10/16 15:37:46;;;;;;;8.77;1.33;;;;;;;;;;4940242;28;20156;-69
2023/10/16 15:40:17;;;;;;;9.02;1.58;;;;;;;;;;4938617;28;20039;-69
2023/10/16 15:42:48;;;;;;;6.82;1.33;;;12.40;99.90;;;;;;4941743;28;20085;-70
2023/10/16 15:45:15;;;;;;;4.30;1.23;;;;;;;;;;4947742;28;20150;-68
2023/10/16 15:47:42;;;;;;;5.53;1.80;;;;;;;;;;4965744;28;20039;-68
2023/10/16 15:50:10;;;;;;;5.43;1.38;;;12.10;99.90;;;;;;4965467;28;20121;-67
2023/10/16 15:52:37;;;;;;;5.07;1.23;;;;;;;;;;4945261;28;20045;-67
2023/10/16 15:55:03;;;;;;;3.13;1.02;;;;;;;;;;4960046;28;20039;-67
2023/10/16 15:57:33;;;;;;;3.85;0.95;;;;;;;;;;4955834;28;20070;-67
2023/10/16 15:59:58;;;;;;;5.05;1.33;;;12.00;99.90;;;;;;4963240;28;20054;-66
2023/10/16 16:02:24;;;;;;;6.30;1.77;;;;;;;;;;4938536;28;20050;-67
2023/10/16 16:04:54;;;;;;;5.00;1.08;;;;;;;;;;4965036;28;20830;-67
2023/10/16 16:07:21;;;;;;;3.17;0.98;;;;;;;;;;4948656;28;20122;-68
2023/10/16 16:09:47;;;;;;;4.10;1.00;;;;;;;;;;4945870;28;20055;-69
2023/10/16 16:12:14;;;;;;;4.20;1.05;;;11.70;99.90;;;;;;4940787;28;20068;-67
2023/10/16 16:14:42;;;;;;;5.35;1.05;;;11.50;99.90;;;;;;4950042;28;20050;-67
2023/10/16 16:17:09;;;;;;;4.18;1.20;;;11.50;99.90;;;;;;4965770;28;20125;-67
2023/10/16 16:19:35;;;;;;;3.28;0.95;;;;;;;;;;4943401;28;20089;-68
2023/10/16 16:22:01;;;;;;;6.22;1.27;;;;;;;;;;4965192;28;20049;-67
2023/10/16 16:24:27;;;;;;;3.28;1.23;;;;;;;;;;4964939;28;20046;-67
2023/10/16 16:26:53;;;;;;;9.75;1.58;;;;;;;;;;4946691;28;20047;-68
2023/10/16 16:29:19;;;;;;;5.13;1.65;;;;;;;;;;4966668;28;20696;-67
2023/10/16 16:31:45;;;;;;;4.00;1.20;;;;;;;;;;4950169;28;20058;-67
2023/10/16 16:34:11;;;;;;;6.20;1.40;;;;;;;;;;4948265;28;20575;-68
2023/10/16 16:36:40;;;;;;;2.35;1.02;;;;;;;;;;4947687;28;20138;-69
2023/10/16 16:39:12;;;;;;;5.95;1.63;;;11.10;99.90;;;;;;4951421;28;20050;-68